sensor_id;sensor_type;location;lat;lon;timestamp;pressure;altitude;pressure_sealevel;temperature;humidity
3598;BME280;1813;52.016;8.714;2022-07-23T00:01:46;-16261.94;;;-139.71;81.40
3598;BME280;1813;52.016;8.714;2022-07-23T00:04:18;-16261.94;;;-139.71;81.52
3598;BME280;1813;52.016;8.714;2022-07-23T00:06:50;-16261.94;;;-139.71;81.58
3598;BME280;1813;52.016;8.714;2022-07-23T00:09:22;-16261.94;;;-139.71;81.40
3598;BME280;1813;52.016;8.714;2022-07-23T00:11:55;-16261.94;;;-139.71;81.92
3598;BME280;1813;52.016;8.714;2022-07-23T00:14:27;-16261.94;;;-139.71;82.23
3598;BME280;1813;52.016;8.714;2022-07-23T00:16:59;-16261.94;;;-139.71;81.96
3598;BME280;1813;52.016;8.714;2022-07-23T00:19:31;-16261.94;;;-139.71;82.37
3598;BME280;1813;52.016;8.714;2022-07-23T00:22:03;-16261.94;;;-139.71;82.25
3598;BME280;1813;52.016;8.714;2022-07-23T00:24:35;-16261.94;;;-139.71;82.21
3598;BME280;1813;52.016;8.714;2022-07-23T00:27:08;-16261.94;;;-139.71;81.65
3598;BME280;1813;52.016;8.714;2022-07-23T00:29:40;-16261.94;;;-139.71;81.72
3598;BME280;1813;52.016;8.714;2022-07-23T00:32:12;-16261.94;;;-139.71;81.70
3598;BME280;1813;52.016;8.714;2022-07-23T00:34:44;-16261.94;;;-139.71;81.70
3598;BME280;1813;52.016;8.714;2022-07-23T00:37:16;-16261.94;;;-139.71;82.46
3598;BME280;1813;52.016;8.714;2022-07-23T00:39:48;-16261.94;;;-139.71;82.59
3598;BME280;1813;52.016;8.714;2022-07-23T00:42:21;-16261.94;;;-139.71;82.74
3598;BME280;1813;52.016;8.714;2022-07-23T00:44:53;-16261.94;;;-139.71;82.91
3598;BME280;1813;52.016;8.714;2022-07-23T00:47:25;-16261.94;;;-139.71;83.25
3598;BME280;1813;52.016;8.714;2022-07-23T00:49:58;-16261.94;;;-139.71;84.21
3598;BME280;1813;52.016;8.714;2022-07-23T00:52:30;-16261.94;;;-139.71;84.32
3598;BME280;1813;52.016;8.714;2022-07-23T00:55:04;-16261.94;;;-139.71;84.27
3598;BME280;1813;52.016;8.714;2022-07-23T00:57:38;-16261.94;;;-139.71;84.41
3598;BME280;1813;52.016;8.714;2022-07-23T01:00:14;-16261.94;;;-139.71;84.75
3598;BME280;1813;52.016;8.714;2022-07-23T01:02:46;-16261.94;;;-139.71;85.30
3598;BME280;1813;52.016;8.714;2022-07-23T01:05:18;-16261.94;;;-139.71;85.79
3598;BME280;1813;52.016;8.714;2022-07-23T01:07:52;-16261.94;;;-139.71;86.50
3598;BME280;1813;52.016;8.714;2022-07-23T01:10:24;-16261.94;;;-139.71;87.33
3598;BME280;1813;52.016;8.714;2022-07-23T01:13:06;-16261.94;;;-139.71;87.87
3598;BME280;1813;52.016;8.714;2022-07-23T01:15:39;-16261.94;;;-139.71;88.13
3598;BME280;1813;52.016;8.714;2022-07-23T01:18:11;-16261.94;;;-139.71;88.02
3598;BME280;1813;52.016;8.714;2022-07-23T01:20:43;-16261.94;;;-139.71;88.11
3598;BME280;1813;52.016;8.714;2022-07-23T01:23:17;-16261.94;;;-139.71;88.32
3598;BME280;1813;52.016;8.714;2022-07-23T01:25:55;-16261.94;;;-139.71;88.48
3598;BME280;1813;52.016;8.714;2022-07-23T01:28:28;-16261.94;;;-139.71;88.27
3598;BME280;1813;52.016;8.714;2022-07-23T01:31:02;-16261.94;;;-139.71;87.69
3598;BME280;1813;52.016;8.714;2022-07-23T01:33:38;-16261.94;;;-139.71;87.09
3598;BME280;1813;52.016;8.714;2022-07-23T01:36:11;-16261.94;;;-139.71;86.83
3598;BME280;1813;52.016;8.714;2022-07-23T01:38:44;-16261.94;;;-139.71;86.75
3598;BME280;1813;52.016;8.714;2022-07-23T01:41:17;-16261.94;;;-139.71;86.82
3598;BME280;1813;52.016;8.714;2022-07-23T01:43:49;-16261.94;;;-139.71;86.88
3598;BME280;1813;52.016;8.714;2022-07-23T01:46:22;-16261.94;;;-139.71;86.99
3598;BME280;1813;52.016;8.714;2022-07-23T01:48:54;-16261.94;;;-139.71;87.35
3598;BME280;1813;52.016;8.714;2022-07-23T01:51:40;-16261.94;;;-139.71;87.65
3598;BME280;1813;52.016;8.714;2022-07-23T01:54:33;-16261.94;;;-139.71;87.86
3598;BME280;1813;52.016;8.714;2022-07-23T01:57:08;-16261.94;;;-139.71;87.58
3598;BME280;1813;52.016;8.714;2022-07-23T01:59:40;-16261.94;;;-139.71;87.67
3598;BME280;1813;52.016;8.714;2022-07-23T02:02:13;-16261.94;;;-139.71;87.87
3598;BME280;1813;52.016;8.714;2022-07-23T02:04:45;-16261.94;;;-139.71;87.75
3598;BME280;1813;52.016;8.714;2022-07-23T02:07:20;-16261.94;;;-139.71;87.45
3598;BME280;1813;52.016;8.714;2022-07-23T02:09:53;-16261.94;;;-139.71;87.52
3598;BME280;1813;52.016;8.714;2022-07-23T02:12:25;-16261.94;;;-139.71;87.37
3598;BME280;1813;52.016;8.714;2022-07-23T02:14:57;-16261.94;;;-139.71;87.45
3598;BME280;1813;52.016;8.714;2022-07-23T02:17:30;-16261.94;;;-139.71;87.74
3598;BME280;1813;52.016;8.714;2022-07-23T02:20:02;-16261.94;;;-139.71;87.55
3598;BME280;1813;52.016;8.714;2022-07-23T02:22:34;-16261.94;;;-139.71;87.24
3598;BME280;1813;52.016;8.714;2022-07-23T02:25:08;-16261.94;;;-139.71;87.12
3598;BME280;1813;52.016;8.714;2022-07-23T02:27:40;-16261.94;;;-139.71;87.66
3598;BME280;1813;52.016;8.714;2022-07-23T02:30:13;-16261.94;;;-139.71;88.14
3598;BME280;1813;52.016;8.714;2022-07-23T02:32:45;-16261.94;;;-139.71;88.33
3598;BME280;1813;52.016;8.714;2022-07-23T02:35:17;-16261.94;;;-139.71;87.93
3598;BME280;1813;52.016;8.714;2022-07-23T02:37:49;-16261.94;;;-139.71;87.72
3598;BME280;1813;52.016;8.714;2022-07-23T02:40:23;-16261.94;;;-139.71;87.17
3598;BME280;1813;52.016;8.714;2022-07-23T02:42:54;-16261.94;;;-139.71;86.92
3598;BME280;1813;52.016;8.714;2022-07-23T02:45:26;-16261.94;;;-139.71;86.78
3598;BME280;1813;52.016;8.714;2022-07-23T02:47:59;-16261.94;;;-139.71;87.34
3598;BME280;1813;52.016;8.714;2022-07-23T02:50:31;-16261.94;;;-139.71;87.79
3598;BME280;1813;52.016;8.714;2022-07-23T02:53:04;-16261.94;;;-139.71;88.00
3598;BME280;1813;52.016;8.714;2022-07-23T02:55:38;-16261.94;;;-139.71;88.48
3598;BME280;1813;52.016;8.714;2022-07-23T02:58:10;-16261.94;;;-139.71;88.37
3598;BME280;1813;52.016;8.714;2022-07-23T03:00:42;-16261.94;;;-139.71;87.62
3598;BME280;1813;52.016;8.714;2022-07-23T03:03:14;-16261.94;;;-139.71;87.47
3598;BME280;1813;52.016;8.714;2022-07-23T03:05:46;-16261.94;;;-139.71;87.56
3598;BME280;1813;52.016;8.714;2022-07-23T03:08:18;-16261.94;;;-139.71;88.07
3598;BME280;1813;52.016;8.714;2022-07-23T03:10:56;-16261.94;;;-139.71;88.15
3598;BME280;1813;52.016;8.714;2022-07-23T03:13:28;-16261.94;;;-139.71;88.15
3598;BME280;1813;52.016;8.714;2022-07-23T03:16:00;-16261.94;;;-139.71;88.52
3598;BME280;1813;52.016;8.714;2022-07-23T03:18:32;-16261.94;;;-139.71;88.24
3598;BME280;1813;52.016;8.714;2022-07-23T03:21:04;-16261.94;;;-139.71;87.73
3598;BME280;1813;52.016;8.714;2022-07-23T03:23:36;-16261.94;;;-139.71;87.49
3598;BME280;1813;52.016;8.714;2022-07-23T03:26:10;-16261.94;;;-139.71;87.27
3598;BME280;1813;52.016;8.714;2022-07-23T03:28:42;-16261.94;;;-139.71;87.03
3598;BME280;1813;52.016;8.714;2022-07-23T03:31:14;-16261.94;;;-139.71;86.91
3598;BME280;1813;52.016;8.714;2022-07-23T03:33:46;-16261.94;;;-139.71;86.50
3598;BME280;1813;52.016;8.714;2022-07-23T03:36:18;-16261.94;;;-139.71;86.22
3598;BME280;1813;52.016;8.714;2022-07-23T03:38:51;-16261.94;;;-139.71;85.79
3598;BME280;1813;52.016;8.714;2022-07-23T03:41:24;-16261.94;;;-139.71;85.56
3598;BME280;1813;52.016;8.714;2022-07-23T03:43:56;-16261.94;;;-139.71;85.26
3598;BME280;1813;52.016;8.714;2022-07-23T03:46:28;-16261.94;;;-139.71;85.16
3598;BME280;1813;52.016;8.714;2022-07-23T03:49:00;-16261.94;;;-139.71;85.32
3598;BME280;1813;52.016;8.714;2022-07-23T03:51:32;-16261.94;;;-139.71;85.84
3598;BME280;1813;52.016;8.714;2022-07-23T03:54:04;-16261.94;;;-139.71;86.11
3598;BME280;1813;52.016;8.714;2022-07-23T03:56:38;-16261.94;;;-139.71;86.12
3598;BME280;1813;52.016;8.714;2022-07-23T03:59:10;-16261.94;;;-139.71;86.09
3598;BME280;1813;52.016;8.714;2022-07-23T04:01:42;-16261.94;;;-139.71;85.63
3598;BME280;1813;52.016;8.714;2022-07-23T04:04:14;-16261.94;;;-139.71;85.42
3598;BME280;1813;52.016;8.714;2022-07-23T04:06:49;-16261.94;;;-139.71;85.31
3598;BME280;1813;52.016;8.714;2022-07-23T04:09:21;-16261.94;;;-139.71;85.24
3598;BME280;1813;52.016;8.714;2022-07-23T04:11:54;-16261.94;;;-139.71;85.12
3598;BME280;1813;52.016;8.714;2022-07-23T04:14:26;-16261.94;;;-139.71;85.19
3598;BME280;1813;52.016;8.714;2022-07-23T04:16:59;-16261.94;;;-139.71;84.79
3598;BME280;1813;52.016;8.714;2022-07-23T04:19:31;-16261.94;;;-139.71;84.21
3598;BME280;1813;52.016;8.714;2022-07-23T04:22:08;-16261.94;;;-139.71;84.14
3598;BME280;1813;52.016;8.714;2022-07-23T04:24:41;-16261.94;;;-139.71;84.10
3598;BME280;1813;52.016;8.714;2022-07-23T04:27:15;-16261.94;;;-139.71;84.17
3598;BME280;1813;52.016;8.714;2022-07-23T04:29:47;-16261.94;;;-139.71;84.35
3598;BME280;1813;52.016;8.714;2022-07-23T04:32:19;-16261.94;;;-139.71;85.37
3598;BME280;1813;52.016;8.714;2022-07-23T04:34:51;-16261.94;;;-139.71;86.17
3598;BME280;1813;52.016;8.714;2022-07-23T04:37:23;-16261.94;;;-139.71;86.25
3598;BME280;1813;52.016;8.714;2022-07-23T04:39:55;-16261.94;;;-139.71;86.39
3598;BME280;1813;52.016;8.714;2022-07-23T04:42:30;-16261.94;;;-139.71;86.16
3598;BME280;1813;52.016;8.714;2022-07-23T04:45:03;-16261.94;;;-139.71;85.90
3598;BME280;1813;52.016;8.714;2022-07-23T04:47:35;-16261.94;;;-139.71;85.59
3598;BME280;1813;52.016;8.714;2022-07-23T04:50:07;-16261.94;;;-139.71;85.68
3598;BME280;1813;52.016;8.714;2022-07-23T04:52:42;-16261.94;;;-139.71;86.17
3598;BME280;1813;52.016;8.714;2022-07-23T04:55:14;-16261.94;;;-139.71;86.73
3598;BME280;1813;52.016;8.714;2022-07-23T04:57:47;-16261.94;;;-139.71;86.97
3598;BME280;1813;52.016;8.714;2022-07-23T05:00:19;-16261.94;;;-139.71;87.13
3598;BME280;1813;52.016;8.714;2022-07-23T05:02:51;-16261.94;;;-139.71;87.17
3598;BME280;1813;52.016;8.714;2022-07-23T05:05:23;-16261.94;;;-139.71;86.92
3598;BME280;1813;52.016;8.714;2022-07-23T05:07:59;-16261.94;;;-139.71;86.87
3598;BME280;1813;52.016;8.714;2022-07-23T05:10:33;-16261.94;;;-139.71;86.99
3598;BME280;1813;52.016;8.714;2022-07-23T05:13:06;-16261.94;;;-139.71;87.05
3598;BME280;1813;52.016;8.714;2022-07-23T05:15:38;-16261.94;;;-139.71;87.15
3598;BME280;1813;52.016;8.714;2022-07-23T05:18:11;-16261.94;;;-139.71;87.50
3598;BME280;1813;52.016;8.714;2022-07-23T05:20:43;-16261.94;;;-139.71;87.39
3598;BME280;1813;52.016;8.714;2022-07-23T05:23:18;-16261.94;;;-139.71;87.11
3598;BME280;1813;52.016;8.714;2022-07-23T05:25:52;-16261.94;;;-139.71;86.82
3598;BME280;1813;52.016;8.714;2022-07-23T05:28:26;-16261.94;;;-139.71;86.52
3598;BME280;1813;52.016;8.714;2022-07-23T05:30:58;-16261.94;;;-139.71;86.35
3598;BME280;1813;52.016;8.714;2022-07-23T05:33:30;-16261.94;;;-139.71;85.99
3598;BME280;1813;52.016;8.714;2022-07-23T05:36:04;-16261.94;;;-139.71;85.62
3598;BME280;1813;52.016;8.714;2022-07-23T05:38:39;-16261.94;;;-139.71;85.26
3598;BME280;1813;52.016;8.714;2022-07-23T05:41:11;-16261.94;;;-139.71;84.63
3598;BME280;1813;52.016;8.714;2022-07-23T05:43:45;-16261.94;;;-139.71;84.49
3598;BME280;1813;52.016;8.714;2022-07-23T05:46:18;-16261.94;;;-139.71;84.37
3598;BME280;1813;52.016;8.714;2022-07-23T05:48:55;-16261.94;;;-139.71;84.01
3598;BME280;1813;52.016;8.714;2022-07-23T05:51:45;-16261.94;;;-139.71;83.41
3598;BME280;1813;52.016;8.714;2022-07-23T05:54:20;-16261.94;;;-139.71;83.57
3598;BME280;1813;52.016;8.714;2022-07-23T05:56:52;-16261.94;;;-139.71;83.32
3598;BME280;1813;52.016;8.714;2022-07-23T05:59:25;-16261.94;;;-139.71;83.16
3598;BME280;1813;52.016;8.714;2022-07-23T06:01:57;-16261.94;;;-139.71;82.62
3598;BME280;1813;52.016;8.714;2022-07-23T06:04:29;-16261.94;;;-139.71;82.38
3598;BME280;1813;52.016;8.714;2022-07-23T06:07:25;-16261.94;;;-139.71;82.19
3598;BME280;1813;52.016;8.714;2022-07-23T06:09:57;-16261.94;;;-139.71;82.01
3598;BME280;1813;52.016;8.714;2022-07-23T06:12:29;-16261.94;;;-139.71;82.13
3598;BME280;1813;52.016;8.714;2022-07-23T06:15:03;-16261.94;;;-139.71;81.95
3598;BME280;1813;52.016;8.714;2022-07-23T06:17:37;-16261.94;;;-139.71;81.39
3598;BME280;1813;52.016;8.714;2022-07-23T06:20:10;-16261.94;;;-139.71;81.44
3598;BME280;1813;52.016;8.714;2022-07-23T06:22:43;-16261.94;;;-139.71;80.87
3598;BME280;1813;52.016;8.714;2022-07-23T06:25:16;-16261.94;;;-139.71;80.71
3598;BME280;1813;52.016;8.714;2022-07-23T06:27:48;-16261.94;;;-139.71;80.63
3598;BME280;1813;52.016;8.714;2022-07-23T06:30:22;-16261.94;;;-139.71;79.82
3598;BME280;1813;52.016;8.714;2022-07-23T06:32:54;-16261.94;;;-139.71;80.40
3598;BME280;1813;52.016;8.714;2022-07-23T06:35:26;-16261.94;;;-139.71;79.83
3598;BME280;1813;52.016;8.714;2022-07-23T06:37:58;-16261.94;;;-139.71;78.26
3598;BME280;1813;52.016;8.714;2022-07-23T06:40:30;-16261.94;;;-139.71;77.74
3598;BME280;1813;52.016;8.714;2022-07-23T06:43:02;-16261.94;;;-139.71;77.62
3598;BME280;1813;52.016;8.714;2022-07-23T06:45:35;-16261.94;;;-139.71;77.76
3598;BME280;1813;52.016;8.714;2022-07-23T06:48:07;-16261.94;;;-139.71;77.78
3598;BME280;1813;52.016;8.714;2022-07-23T06:50:39;-16261.94;;;-139.71;76.90
3598;BME280;1813;52.016;8.714;2022-07-23T06:53:11;-16261.94;;;-139.71;76.77
3598;BME280;1813;52.016;8.714;2022-07-23T06:55:46;-16261.94;;;-139.71;75.59
3598;BME280;1813;52.016;8.714;2022-07-23T06:58:17;-16261.94;;;-139.71;76.30
3598;BME280;1813;52.016;8.714;2022-07-23T07:00:52;-16261.94;;;-139.71;75.36
3598;BME280;1813;52.016;8.714;2022-07-23T07:03:24;-16261.94;;;-139.71;75.44
3598;BME280;1813;52.016;8.714;2022-07-23T07:05:56;-16261.94;;;-139.71;75.09
3598;BME280;1813;52.016;8.714;2022-07-23T07:08:29;-16261.94;;;-139.71;72.77
3598;BME280;1813;52.016;8.714;2022-07-23T07:11:00;-16261.94;;;-139.71;71.65
3598;BME280;1813;52.016;8.714;2022-07-23T07:13:32;-16261.94;;;-139.71;71.58
3598;BME280;1813;52.016;8.714;2022-07-23T07:16:06;-16261.94;;;-139.71;70.56
3598;BME280;1813;52.016;8.714;2022-07-23T07:18:38;-16261.94;;;-139.71;69.26
3598;BME280;1813;52.016;8.714;2022-07-23T07:21:10;-16261.94;;;-139.71;69.37
3598;BME280;1813;52.016;8.714;2022-07-23T07:23:42;-16261.94;;;-139.71;68.45
3598;BME280;1813;52.016;8.714;2022-07-23T07:26:14;-16261.94;;;-139.71;67.56
3598;BME280;1813;52.016;8.714;2022-07-23T07:28:46;-16261.94;;;-139.71;67.87
3598;BME280;1813;52.016;8.714;2022-07-23T07:31:19;-16261.94;;;-139.71;66.82
3598;BME280;1813;52.016;8.714;2022-07-23T07:33:51;-16261.94;;;-139.71;65.02
3598;BME280;1813;52.016;8.714;2022-07-23T07:36:23;-16261.94;;;-139.71;64.62
3598;BME280;1813;52.016;8.714;2022-07-23T07:38:55;-16261.94;;;-139.71;64.25
3598;BME280;1813;52.016;8.714;2022-07-23T07:41:27;-16261.94;;;-139.71;64.57
3598;BME280;1813;52.016;8.714;2022-07-23T07:43:59;-16261.94;;;-139.71;64.20
3598;BME280;1813;52.016;8.714;2022-07-23T07:46:32;-16261.94;;;-139.71;63.51
3598;BME280;1813;52.016;8.714;2022-07-23T07:49:04;-16261.94;;;-139.71;64.11
3598;BME280;1813;52.016;8.714;2022-07-23T07:51:36;-16261.94;;;-139.71;63.70
3598;BME280;1813;52.016;8.714;2022-07-23T07:54:08;-16261.94;;;-139.71;64.34
3598;BME280;1813;52.016;8.714;2022-07-23T07:56:40;-16261.94;;;-139.71;65.48
3598;BME280;1813;52.016;8.714;2022-07-23T07:59:12;-16261.94;;;-139.71;65.70
3598;BME280;1813;52.016;8.714;2022-07-23T08:01:46;-16261.94;;;-139.71;65.38
3598;BME280;1813;52.016;8.714;2022-07-23T08:04:18;-16261.94;;;-139.71;65.26
3598;BME280;1813;52.016;8.714;2022-07-23T08:06:50;-16261.94;;;-139.71;61.94
3598;BME280;1813;52.016;8.714;2022-07-23T08:09:22;-16261.94;;;-139.71;61.68
3598;BME280;1813;52.016;8.714;2022-07-23T08:11:54;-16261.94;;;-139.71;61.94
3598;BME280;1813;52.016;8.714;2022-07-23T08:14:26;-16261.94;;;-139.71;61.38
3598;BME280;1813;52.016;8.714;2022-07-23T08:16:59;-16261.94;;;-139.71;60.33
3598;BME280;1813;52.016;8.714;2022-07-23T08:19:31;-16261.94;;;-139.71;60.01
3598;BME280;1813;52.016;8.714;2022-07-23T08:22:03;-16261.94;;;-139.71;60.25
3598;BME280;1813;52.016;8.714;2022-07-23T08:24:35;-16261.94;;;-139.71;57.41
3598;BME280;1813;52.016;8.714;2022-07-23T08:27:07;-16261.94;;;-139.71;57.37
3598;BME280;1813;52.016;8.714;2022-07-23T08:29:39;-16261.94;;;-139.71;57.45
3598;BME280;1813;52.016;8.714;2022-07-23T08:32:12;-16261.94;;;-139.71;58.62
3598;BME280;1813;52.016;8.714;2022-07-23T08:34:45;-16261.94;;;-139.71;58.09
3598;BME280;1813;52.016;8.714;2022-07-23T08:37:17;-16261.94;;;-139.71;56.40
3598;BME280;1813;52.016;8.714;2022-07-23T08:39:49;-16261.94;;;-139.71;54.38
3598;BME280;1813;52.016;8.714;2022-07-23T08:42:21;-16261.94;;;-139.71;53.73
3598;BME280;1813;52.016;8.714;2022-07-23T08:44:53;-16261.94;;;-139.71;56.05
3598;BME280;1813;52.016;8.714;2022-07-23T08:47:26;-16261.94;;;-139.71;54.29
3598;BME280;1813;52.016;8.714;2022-07-23T08:49:58;-16261.94;;;-139.71;52.89
3598;BME280;1813;52.016;8.714;2022-07-23T08:52:30;-16261.94;;;-139.71;53.96
3598;BME280;1813;52.016;8.714;2022-07-23T08:55:04;-16261.94;;;-139.71;54.34
3598;BME280;1813;52.016;8.714;2022-07-23T08:57:36;-16261.94;;;-139.71;51.26
3598;BME280;1813;52.016;8.714;2022-07-23T09:00:11;-16261.94;;;-139.71;51.11
3598;BME280;1813;52.016;8.714;2022-07-23T09:02:48;-16261.94;;;-139.71;47.85
3598;BME280;1813;52.016;8.714;2022-07-23T09:05:27;-16261.94;;;-139.71;49.77
3598;BME280;1813;52.016;8.714;2022-07-23T09:08:08;-16261.94;;;-139.71;48.07
3598;BME280;1813;52.016;8.714;2022-07-23T09:10:47;-16261.94;;;-139.71;48.99
3598;BME280;1813;52.016;8.714;2022-07-23T09:13:28;-16261.94;;;-139.71;49.48
3598;BME280;1813;52.016;8.714;2022-07-23T09:16:05;-16261.94;;;-139.71;47.33
3598;BME280;1813;52.016;8.714;2022-07-23T09:18:47;-16261.94;;;-139.71;49.10
3598;BME280;1813;52.016;8.714;2022-07-23T09:21:24;-16261.94;;;-139.71;46.43
3598;BME280;1813;52.016;8.714;2022-07-23T09:23:58;-16261.94;;;-139.71;46.96
3598;BME280;1813;52.016;8.714;2022-07-23T09:26:33;-16261.94;;;-139.71;48.14
3598;BME280;1813;52.016;8.714;2022-07-23T09:29:09;-16261.94;;;-139.71;48.15
3598;BME280;1813;52.016;8.714;2022-07-23T09:31:47;-16261.94;;;-139.71;49.14
3598;BME280;1813;52.016;8.714;2022-07-23T09:34:22;-16261.94;;;-139.71;49.47
3598;BME280;1813;52.016;8.714;2022-07-23T09:36:56;-16261.94;;;-139.71;50.83
3598;BME280;1813;52.016;8.714;2022-07-23T09:39:29;-16261.94;;;-139.71;49.35
3598;BME280;1813;52.016;8.714;2022-07-23T09:42:13;-16261.94;;;-139.71;49.02
3598;BME280;1813;52.016;8.714;2022-07-23T09:44:53;-16261.94;;;-139.71;50.46
3598;BME280;1813;52.016;8.714;2022-07-23T09:47:28;-16261.94;;;-139.71;47.22
3598;BME280;1813;52.016;8.714;2022-07-23T09:50:10;-16261.94;;;-139.71;46.38
3598;BME280;1813;52.016;8.714;2022-07-23T09:52:46;-16261.94;;;-139.71;46.07
3598;BME280;1813;52.016;8.714;2022-07-23T09:55:31;-16261.94;;;-139.71;45.59
3598;BME280;1813;52.016;8.714;2022-07-23T09:58:10;-16261.94;;;-139.71;45.41
3598;BME280;1813;52.016;8.714;2022-07-23T10:00:50;-16261.94;;;-139.71;47.11
3598;BME280;1813;52.016;8.714;2022-07-23T10:03:24;-16261.94;;;-139.71;47.67
3598;BME280;1813;52.016;8.714;2022-07-23T10:06:43;-16261.94;;;-139.71;48.49
3598;BME280;1813;52.016;8.714;2022-07-23T10:09:54;-16261.94;;;-139.71;47.54
3598;BME280;1813;52.016;8.714;2022-07-23T10:12:51;-16261.94;;;-139.71;46.81
3598;BME280;1813;52.016;8.714;2022-07-23T10:15:54;-16261.94;;;-139.71;46.85
3598;BME280;1813;52.016;8.714;2022-07-23T10:18:26;-16261.94;;;-139.71;46.50
3598;BME280;1813;52.016;8.714;2022-07-23T10:20:59;-16261.94;;;-139.71;47.93
3598;BME280;1813;52.016;8.714;2022-07-23T10:23:35;-16261.94;;;-139.71;48.71
3598;BME280;1813;52.016;8.714;2022-07-23T10:26:12;-16261.94;;;-139.71;47.30
3598;BME280;1813;52.016;8.714;2022-07-23T10:29:06;-16261.94;;;-139.71;45.82
3598;BME280;1813;52.016;8.714;2022-07-23T10:31:52;-16261.94;;;-139.71;45.95
3598;BME280;1813;52.016;8.714;2022-07-23T10:34:36;-16261.94;;;-139.71;45.04
3598;BME280;1813;52.016;8.714;2022-07-23T10:37:14;-16261.94;;;-139.71;45.33
3598;BME280;1813;52.016;8.714;2022-07-23T10:40:10;-16261.94;;;-139.71;45.70
3598;BME280;1813;52.016;8.714;2022-07-23T10:42:43;-16261.94;;;-139.71;46.32
3598;BME280;1813;52.016;8.714;2022-07-23T10:45:29;-16261.94;;;-139.71;44.19
3598;BME280;1813;52.016;8.714;2022-07-23T10:48:13;-16261.94;;;-139.71;44.12
3598;BME280;1813;52.016;8.714;2022-07-23T10:51:07;-16261.94;;;-139.71;43.98
3598;BME280;1813;52.016;8.714;2022-07-23T10:53:56;-16261.94;;;-139.71;42.63
3598;BME280;1813;52.016;8.714;2022-07-23T11:02:48;-16261.94;;;-139.71;44.18
3598;BME280;1813;52.016;8.714;2022-07-23T11:05:24;-16261.94;;;-139.71;41.85
3598;BME280;1813;52.016;8.714;2022-07-23T11:08:15;-16261.94;;;-139.71;42.90
3598;BME280;1813;52.016;8.714;2022-07-23T11:10:50;-16261.94;;;-139.71;42.77
3598;BME280;1813;52.016;8.714;2022-07-23T11:13:31;-16261.94;;;-139.71;41.28
3598;BME280;1813;52.016;8.714;2022-07-23T11:16:06;-16261.94;;;-139.71;41.57
3598;BME280;1813;52.016;8.714;2022-07-23T11:19:06;-16261.94;;;-139.71;40.72
3598;BME280;1813;52.016;8.714;2022-07-23T11:21:46;-16261.94;;;-139.71;42.57
3598;BME280;1813;52.016;8.714;2022-07-23T11:24:20;-16261.94;;;-139.71;40.62
3598;BME280;1813;52.016;8.714;2022-07-23T11:27:01;-16261.94;;;-139.71;40.92
3598;BME280;1813;52.016;8.714;2022-07-23T11:29:57;-16261.94;;;-139.71;40.61
3598;BME280;1813;52.016;8.714;2022-07-23T11:32:32;-16261.94;;;-139.71;41.38
3598;BME280;1813;52.016;8.714;2022-07-23T11:35:21;-16261.94;;;-139.71;41.81
3598;BME280;1813;52.016;8.714;2022-07-23T11:38:02;-16261.94;;;-139.71;40.84
3598;BME280;1813;52.016;8.714;2022-07-23T11:40:35;-16261.94;;;-139.71;39.35
3598;BME280;1813;52.016;8.714;2022-07-23T11:43:08;-16261.94;;;-139.71;37.88
3598;BME280;1813;52.016;8.714;2022-07-23T11:45:43;-16261.94;;;-139.71;38.10
3598;BME280;1813;52.016;8.714;2022-07-23T11:48:18;-16261.94;;;-139.71;38.42
3598;BME280;1813;52.016;8.714;2022-07-23T11:50:52;-16261.94;;;-139.71;37.65
3598;BME280;1813;52.016;8.714;2022-07-23T11:53:25;-16261.94;;;-139.71;39.52
3598;BME280;1813;52.016;8.714;2022-07-23T11:56:03;-16261.94;;;-139.71;40.84
3598;BME280;1813;52.016;8.714;2022-07-23T11:58:36;-16261.94;;;-139.71;37.60
3598;BME280;1813;52.016;8.714;2022-07-23T12:01:09;-16261.94;;;-139.71;38.60
3598;BME280;1813;52.016;8.714;2022-07-23T12:03:49;-16261.94;;;-139.71;37.11
3598;BME280;1813;52.016;8.714;2022-07-23T12:06:23;-16261.94;;;-139.71;37.17
3598;BME280;1813;52.016;8.714;2022-07-23T12:08:55;-16261.94;;;-139.71;37.64
3598;BME280;1813;52.016;8.714;2022-07-23T12:11:27;-16261.94;;;-139.71;37.94
3598;BME280;1813;52.016;8.714;2022-07-23T12:13:59;-16261.94;;;-139.71;38.05
3598;BME280;1813;52.016;8.714;2022-07-23T12:16:31;-16261.94;;;-139.71;38.50
3598;BME280;1813;52.016;8.714;2022-07-23T12:19:04;-16261.94;;;-139.71;39.28
3598;BME280;1813;52.016;8.714;2022-07-23T12:21:37;-16261.94;;;-139.71;39.63
3598;BME280;1813;52.016;8.714;2022-07-23T12:24:09;-16261.94;;;-139.71;39.33
3598;BME280;1813;52.016;8.714;2022-07-23T12:27:09;-16261.94;;;-139.71;36.82
3598;BME280;1813;52.016;8.714;2022-07-23T12:29:41;-16261.94;;;-139.71;36.60
3598;BME280;1813;52.016;8.714;2022-07-23T12:32:21;-16261.94;;;-139.71;36.85
3598;BME280;1813;52.016;8.714;2022-07-23T12:35:03;-16261.94;;;-139.71;35.63
3598;BME280;1813;52.016;8.714;2022-07-23T12:37:38;-16261.94;;;-139.71;35.67
3598;BME280;1813;52.016;8.714;2022-07-23T12:40:29;-16261.94;;;-139.71;35.63
3598;BME280;1813;52.016;8.714;2022-07-23T12:43:05;-16261.94;;;-139.71;35.41
3598;BME280;1813;52.016;8.714;2022-07-23T12:45:45;-16261.94;;;-139.71;36.98
3598;BME280;1813;52.016;8.714;2022-07-23T12:48:23;-16261.94;;;-139.71;35.84
3598;BME280;1813;52.016;8.714;2022-07-23T12:50:58;-16261.94;;;-139.71;36.88
3598;BME280;1813;52.016;8.714;2022-07-23T12:53:37;-16261.94;;;-139.71;35.09
3598;BME280;1813;52.016;8.714;2022-07-23T12:56:13;-16261.94;;;-139.71;35.26
3598;BME280;1813;52.016;8.714;2022-07-23T12:58:47;-16261.94;;;-139.71;35.87
3598;BME280;1813;52.016;8.714;2022-07-23T13:01:25;-16261.94;;;-139.71;35.41
3598;BME280;1813;52.016;8.714;2022-07-23T13:04:00;-16261.94;;;-139.71;36.25
3598;BME280;1813;52.016;8.714;2022-07-23T13:06:33;-16261.94;;;-139.71;37.68
3598;BME280;1813;52.016;8.714;2022-07-23T13:09:09;-16261.94;;;-139.71;37.79
3598;BME280;1813;52.016;8.714;2022-07-23T13:11:41;-16261.94;;;-139.71;36.72
3598;BME280;1813;52.016;8.714;2022-07-23T13:14:14;-16261.94;;;-139.71;35.30
3598;BME280;1813;52.016;8.714;2022-07-23T13:16:47;-16261.94;;;-139.71;36.37
3598;BME280;1813;52.016;8.714;2022-07-23T13:19:20;-16261.94;;;-139.71;35.73
3598;BME280;1813;52.016;8.714;2022-07-23T13:21:52;-16261.94;;;-139.71;36.44
3598;BME280;1813;52.016;8.714;2022-07-23T13:24:26;-16261.94;;;-139.71;35.08
3598;BME280;1813;52.016;8.714;2022-07-23T13:26:58;-16261.94;;;-139.71;34.85
3598;BME280;1813;52.016;8.714;2022-07-23T13:29:30;-16261.94;;;-139.71;35.56
3598;BME280;1813;52.016;8.714;2022-07-23T13:32:03;-16261.94;;;-139.71;34.88
3598;BME280;1813;52.016;8.714;2022-07-23T13:34:35;-16261.94;;;-139.71;34.86
3598;BME280;1813;52.016;8.714;2022-07-23T13:37:07;-16261.94;;;-139.71;34.99